Time;durP1;ratioP1;P1;durP2;ratioP2;P2;SDS_P1;SDS_P2;PMS_P1;PMS_P2;Temp;Humidity;BMP_temperature;BMP_pressure;BME280_temperature;BME280_humidity;BME280_pressure;Samples;Min_cycle;Max_cycle;Signal;HPM_P1;HPM_P2
2024/03/23 00:00:23;;;;;;;20.57;6.73;;;;;;;7.94;100.00;100848.50;6248232;28;20239;-69
2024/03/23 00:03:51;;;;;;;22.53;6.67;;;;;;;7.79;100.00;100851.50;6233244;28;20376;-68
2024/03/23 00:07:18;;;;;;;18.80;6.00;;;;;;;7.74;100.00;100841.13;6255645;28;20235;-69
2024/03/23 00:10:42;;;;;;;12.10;6.23;;;;;;;7.66;100.00;100838.19;6236410;28;20885;-69
2024/03/23 00:14:05;;;;;;;21.17;6.80;;;;;;;7.65;100.00;100841.00;6258658;28;20231;-68
2024/03/23 00:17:26;;;;;;;16.37;7.27;;;;;;;7.64;100.00;100837.47;6251183;28;20244;-68
2024/03/23 00:20:48;;;;;;;14.80;6.50;;;;;;;7.73;100.00;100831.38;6232102;28;20553;-69
2024/03/23 00:24:11;;;;;;;15.87;6.80;;;;;;;7.67;100.00;100825.63;6258861;28;20228;-69
2024/03/23 00:27:35;;;;;;;14.47;5.33;;;;;;;7.67;100.00;100823.81;6242630;28;20258;-69
2024/03/23 00:31:00;;;;;;;10.03;4.60;;;;;;;7.68;100.00;100808.56;6244635;28;20231;-69
2024/03/23 00:34:24;;;;;;;16.03;6.23;;;;;;;7.81;100.00;100810.16;6253790;28;20243;-67
2024/03/23 00:37:49;;;;;;;18.93;5.00;;;;;;;7.71;100.00;100809.19;6256661;28;20219;-68
2024/03/23 00:41:13;;;;;;;13.27;5.93;;;;;;;7.70;100.00;100801.22;6232888;28;20231;-69
2024/03/23 00:44:38;;;;;;;12.63;5.60;;;;;;;7.71;100.00;100793.09;6247913;28;20226;-69
2024/03/23 00:48:02;;;;;;;22.03;8.13;;;;;;;7.60;100.00;100795.75;6259319;28;20235;-69
2024/03/23 00:51:23;;;;;;;11.13;5.00;;;;;;;7.41;100.00;100783.88;6226598;28;20231;-68
2024/03/23 00:54:44;;;;;;;18.57;6.17;;;;;;;7.49;100.00;100787.66;6252557;28;20823;-70
2024/03/23 00:58:05;;;;;;;17.00;6.33;;;;;;;7.59;100.00;100787.84;6253739;28;20239;-68
2024/03/23 01:01:26;;;;;;;13.87;5.90;;;;;;;7.50;100.00;100773.31;6242125;28;20573;-69
2024/03/23 01:04:48;;;;;;;14.80;5.17;;;;;;;7.65;100.00;100774.78;6237412;28;20307;-69
2024/03/23 01:08:08;;;;;;;14.30;7.00;;;;;;;7.63;100.00;100757.09;6252256;28;20512;-68
2024/03/23 01:11:29;;;;;;;15.00;6.67;;;;;;;7.69;100.00;100760.16;6253739;28;20565;-68
2024/03/23 01:14:49;;;;;;;16.20;6.67;;;;;;;7.79;100.00;100769.19;6246254;28;20224;-69
2024/03/23 01:18:10;;;;;;;11.63;6.90;;;;;;;7.52;100.00;100767.81;6241937;28;20235;-68
2024/03/23 01:21:32;;;;;;;21.57;5.87;;;;;;;7.36;100.00;100759.25;6233612;28;20231;-69
2024/03/23 01:24:53;;;;;;;9.73;4.93;;;;;;;7.25;100.00;100752.03;6250154;28;20604;-68
2024/03/23 01:28:13;;;;;;;20.97;7.10;;;;;;;7.26;100.00;100729.59;6262143;28;20227;-67
2024/03/23 01:31:34;;;;;;;13.20;5.10;;;;;;;7.34;100.00;100739.75;6250567;28;20383;-68
2024/03/23 01:34:55;;;;;;;10.60;6.70;;;;;;;7.36;100.00;100735.97;6246805;28;20561;-69
2024/03/23 01:38:20;;;;;;;17.33;6.00;;;;;;;7.25;100.00;100739.50;6232669;28;20256;-68
2024/03/23 01:41:42;;;;;;;14.77;6.60;;;;;;;7.24;100.00;100745.81;6250876;28;20239;-68
2024/03/23 01:45:07;;;;;;;14.33;5.03;;;;;;;7.13;100.00;100721.66;6257732;28;20228;-68
2024/03/23 01:48:28;;;;;;;13.07;7.00;;;;;;;7.21;100.00;100729.97;6252396;28;20240;-68
2024/03/23 01:51:49;;;;;;;14.23;5.37;;;;;;;7.34;100.00;100719.16;6250266;28;20306;-69
2024/03/23 01:55:12;;;;;;;17.73;7.37;;;;;;;7.47;100.00;100709.16;6252224;28;20322;-68
2024/03/23 01:58:33;;;;;;;15.80;6.67;;;;;;;7.23;100.00;100701.22;6257632;28;20227;-68
2024/03/23 02:01:53;;;;;;;17.20;6.43;;;;;;;7.09;100.00;100700.59;6254088;28;20546;-68
2024/03/23 02:05:16;;;;;;;14.60;6.23;;;;;;;7.18;100.00;100703.41;6248358;28;20227;-70
2024/03/23 02:08:38;;;;;;;15.30;6.40;;;;;;;7.11;100.00;100690.59;6250276;28;20839;-67
2024/03/23 02:12:02;;;;;;;14.17;5.40;;;;;;;7.23;100.00;100692.31;6250611;28;20232;-68
2024/03/23 02:15:22;;;;;;;19.37;7.23;;;;;;;7.11;100.00;100680.72;6257233;28;20336;-68
2024/03/23 02:18:43;;;;;;;12.63;6.17;;;;;;;7.13;100.00;100677.94;6257033;28;20533;-69
2024/03/23 02:22:04;;;;;;;19.13;7.13;;;;;;;7.08;100.00;100674.75;6255622;28;20243;-68
2024/03/23 02:25:26;;;;;;;13.13;7.33;;;;;;;7.04;100.00;100666.09;6235153;28;20853;-68
2024/03/23 02:28:47;;;;;;;14.50;7.13;;;;;;;7.04;100.00;100662.56;6264760;28;20228;-68
2024/03/23 02:32:08;;;;;;;8.57;5.73;;;;;;;7.02;100.00;100662.69;6254533;28;20240;-68
2024/03/23 02:35:29;;;;;;;17.67;6.63;;;;;;;7.03;100.00;100659.00;6243619;28;20640;-68
2024/03/23 02:38:49;;;;;;;16.20;7.03;;;;;;;7.04;100.00;100658.06;6253159;28;20232;-69
2024/03/23 02:42:13;;;;;;;14.57;6.87;;;;;;;6.93;100.00;100665.19;6253034;28;20247;-69
2024/03/23 02:45:34;;;;;;;9.93;5.47;;;;;;;6.90;100.00;100662.78;6254500;28;20251;-68
2024/03/23 02:49:21;;;;;;;22.73;8.00;;;;;;;6.93;100.00;100649.13;6251600;28;20220;-70
2024/03/23 02:52:41;;;;;;;10.27;6.10;;;;;;;6.92;100.00;100645.63;6246676;28;20231;-68
2024/03/23 02:56:02;;;;;;;10.63;5.70;;;;;;;6.92;100.00;100650.13;6252533;28;20224;-70
2024/03/23 02:59:24;;;;;;;13.87;6.90;;;;;;;6.95;100.00;100650.72;6264361;28;20330;-68
2024/03/23 03:02:45;;;;;;;13.67;6.87;;;;;;;6.88;100.00;100645.97;6227382;28;20233;-67
2024/03/23 03:06:27;;;;;;;10.27;6.70;;;;;;;6.91;100.00;100645.72;6253056;28;20535;-69
2024/03/23 03:09:47;;;;;;;20.27;9.07;;;;;;;6.91;100.00;100629.63;6259915;28;20238;-69
2024/03/23 03:13:08;;;;;;;14.63;5.73;;;;;;;6.91;100.00;100622.47;6252044;28;20231;-69
2024/03/23 03:16:29;;;;;;;14.83;6.67;;;;;;;6.96;100.00;100622.09;6241929;28;20235;-68
2024/03/23 03:19:55;;;;;;;18.97;6.10;;;;;;;6.80;100.00;100617.06;6265696;28;20224;-67
2024/03/23 03:23:21;;;;;;;19.43;6.50;;;;;;;6.89;100.00;100616.38;6256209;28;20258;-68
2024/03/23 03:26:49;;;;;;;13.40;6.10;;;;;;;6.94;100.00;100618.69;6238939;28;20614;-68
2024/03/23 03:30:12;;;;;;;17.47;7.33;;;;;;;6.79;100.00;100614.53;6242106;28;20232;-68
2024/03/23 03:33:33;;;;;;;19.90;5.83;;;;;;;6.69;100.00;100605.50;6254119;28;20235;-69
2024/03/23 03:36:58;;;;;;;12.60;4.83;;;;;;;6.68;100.00;100596.59;6251733;28;20228;-70
2024/03/23 03:40:19;;;;;;;23.37;8.27;;;;;;;6.61;100.00;100595.38;6258065;28;20231;-67
2024/03/23 03:43:40;;;;;;;10.00;5.17;;;;;;;6.64;100.00;100594.28;6242416;28;20240;-68
2024/03/23 03:47:14;;;;;;;23.23;6.57;;;;;;;6.69;100.00;100592.09;6246158;28;20507;-68
2024/03/23 03:50:36;;;;;;;10.73;5.43;;;;;;;6.75;100.00;100581.78;6241069;28;20215;-67
2024/03/23 03:53:57;;;;;;;19.07;6.60;;;;;;;6.84;100.00;100591.75;6242243;28;20247;-67
2024/03/23 03:57:17;;;;;;;13.40;6.13;;;;;;;6.89;100.00;100591.41;6238647;28;20235;-68
2024/03/23 04:00:47;;;;;;;12.93;6.30;;;;;;;6.89;100.00;100576.19;6227063;28;20235;-69
2024/03/23 04:04:08;;;;;;;9.30;4.80;;;;;;;6.84;100.00;100564.13;6248913;28;20235;-68
2024/03/23 04:07:29;;;;;;;12.67;5.10;;;;;;;6.74;100.00;100572.00;6252107;28;20236;-68
2024/03/23 04:11:15;;;;;;;9.80;5.30;;;;;;;6.66;100.00;100573.56;6238839;28;20350;-69
2024/03/23 04:14:36;;;;;;;14.07;5.63;;;;;;;6.57;100.00;100571.63;6258784;28;20235;-68
2024/03/23 04:17:57;;;;;;;12.00;4.57;;;;;;;6.61;100.00;100573.97;6248115;28;20227;-69
2024/03/23 04:21:18;;;;;;;12.43;5.53;;;;;;;6.57;100.00;100563.59;6246020;28;20232;-67
2024/03/23 04:24:39;;;;;;;12.20;5.53;;;;;;;6.62;100.00;100548.88;6226484;28;20247;-67
2024/03/23 04:27:59;;;;;;;14.63;5.63;;;;;;;6.52;100.00;100542.53;6253301;28;20232;-68
2024/03/23 04:31:19;;;;;;;7.60;4.53;;;;;;;6.55;100.00;100526.19;6238619;28;20321;-69
2024/03/23 04:34:52;;;;;;;13.57;5.77;;;;;;;6.59;100.00;100541.09;6252262;28;20522;-70
2024/03/23 04:38:13;;;;;;;11.70;4.50;;;;;;;6.57;100.00;100555.56;6251916;28;20263;-68
2024/03/23 04:41:35;;;;;;;10.77;4.93;;;;;;;6.53;100.00;100567.50;6244336;28;20330;-69
2024/03/23 04:44:55;;;;;;;13.33;5.47;;;;;;;6.58;100.00;100568.81;6253737;28;20239;-68
2024/03/23 04:48:16;;;;;;;17.37;6.33;;;;;;;6.62;100.00;100564.06;6254073;28;20311;-68
2024/03/23 04:51:38;;;;;;;11.87;5.33;;;;;;;6.64;100.00;100568.34;6256517;28;20235;-68
2024/03/23 04:54:59;;;;;;;10.00;5.27;;;;;;;6.58;100.00;100578.69;6249068;28;20247;-67
2024/03/23 04:58:36;;;;;;;17.37;6.23;;;;;;;6.58;100.00;100566.16;6256994;28;20681;-69
2024/03/23 05:01:57;;;;;;;12.07;5.77;;;;;;;6.63;100.00;100539.00;6257644;28;20232;-67
2024/03/23 05:05:18;;;;;;;13.90;6.50;;;;;;;6.61;100.00;100535.59;6251972;28;20838;-68
2024/03/23 05:08:39;;;;;;;9.97;5.07;;;;;;;6.56;100.00;100535.97;6241725;28;20672;-68
2024/03/23 05:12:00;;;;;;;12.27;5.83;;;;;;;6.60;100.00;100540.09;6247147;28;20231;-68
2024/03/23 05:15:22;;;;;;;11.17;4.90;;;;;;;6.56;100.00;100537.78;6256399;28;20708;-67
2024/03/23 05:18:43;;;;;;;12.13;5.70;;;;;;;6.58;100.00;100536.69;6239090;28;20261;-67
2024/03/23 05:22:18;;;;;;;7.23;5.20;;;;;;;6.57;100.00;100539.50;6250891;28;20322;-68
2024/03/23 05:25:38;;;;;;;12.23;5.87;;;;;;;6.65;100.00;100531.72;6253007;28;20230;-68
2024/03/23 05:28:58;;;;;;;7.13;5.43;;;;;;;6.70;100.00;100533.06;6249040;28;20233;-68
2024/03/23 05:32:20;;;;;;;14.50;6.37;;;;;;;6.76;100.00;100529.06;6233808;28;20240;-68
2024/03/23 05:35:41;;;;;;;17.20;5.27;;;;;;;6.76;100.00;100529.88;6238187;28;20318;-71
2024/03/23 05:39:01;;;;;;;13.73;5.70;;;;;;;6.88;100.00;100534.31;6244376;28;20232;-69
2024/03/23 05:42:21;;;;;;;20.13;6.03;;;;;;;6.73;100.00;100526.59;6248028;28;20326;-68
2024/03/23 05:45:43;;;;;;;11.70;5.97;;;;;;;6.73;100.00;100513.22;6247002;28;20235;-67
2024/03/23 05:49:04;;;;;;;9.70;4.50;;;;;;;6.79;100.00;100510.91;6244706;28;20237;-68
2024/03/23 05:52:25;;;;;;;9.90;4.70;;;;;;;6.75;100.00;100492.50;6245346;28;21426;-68
2024/03/23 05:55:47;;;;;;;16.67;7.97;;;;;;;6.95;100.00;100492.63;6253307;28;20231;-68
2024/03/23 05:59:07;;;;;;;11.97;5.03;;;;;;;6.81;100.00;100487.53;6244161;28;20294;-68
2024/03/23 06:02:27;;;;;;;9.13;5.27;;;;;;;6.78;100.00;100485.06;6234336;28;20236;-69
2024/03/23 06:06:10;;;;;;;10.43;5.43;;;;;;;6.68;100.00;100494.81;6197353;28;20675;-68
2024/03/23 06:09:31;;;;;;;9.97;4.93;;;;;;;6.77;100.00;100491.44;6234346;28;20334;-68
2024/03/23 06:12:52;;;;;;;18.23;6.50;;;;;;;6.63;100.00;100496.16;6243462;28;20224;-68
2024/03/23 06:16:23;;;;;;;14.27;6.43;;;;;;;6.74;100.00;100497.00;6239589;28;20223;-69
2024/03/23 06:19:43;;;;;;;9.83;4.53;;;;;;;6.72;100.00;100507.00;6240851;28;20228;-68
2024/03/23 06:23:05;;;;;;;9.07;5.07;;;;;;;6.63;100.00;100490.81;6247923;28;20819;-68
2024/03/23 06:26:26;;;;;;;16.27;4.93;;;;;;;6.65;100.00;100495.09;6242563;28;20228;-69
2024/03/23 06:29:47;;;;;;;16.70;6.93;;;;;;;6.65;100.00;100492.41;6252802;28;20223;-68
2024/03/23 06:33:08;;;;;;;12.80;5.23;;;;;;;6.80;100.00;100493.00;6239014;28;20239;-68
2024/03/23 06:36:30;;;;;;;15.20;6.23;;;;;;;6.85;100.00;100488.13;6235282;28;20774;-69
2024/03/23 06:40:09;;;;;;;9.37;5.30;;;;;;;7.00;100.00;100493.13;6240116;28;20236;-68
2024/03/23 06:43:30;;;;;;;16.13;6.20;;;;;;;6.90;100.00;100485.94;6237546;28;20236;-68
2024/03/23 06:46:51;;;;;;;14.80;6.00;;;;;;;7.04;100.00;100486.53;6211702;28;20241;-67
2024/03/23 06:50:12;;;;;;;9.53;6.03;;;;;;;7.06;100.00;100484.59;6239227;28;20239;-66
2024/03/23 06:53:32;;;;;;;7.30;4.20;;;;;;;7.19;100.00;100479.09;6237161;28;20688;-68
2024/03/23 06:56:54;;;;;;;9.03;4.63;;;;;;;7.00;100.00;100477.06;6235766;28;20476;-67
2024/03/23 07:00:16;;;;;;;20.30;5.70;;;;;;;7.06;100.00;100475.69;6244099;28;20229;-67
2024/03/23 07:03:56;;;;;;;16.37;6.73;;;;;;;6.88;100.00;100480.72;6283452;22;20227;-68
2024/03/23 07:07:17;;;;;;;9.90;5.47;;;;;;;6.82;100.00;100483.84;6276211;28;20314;-67
2024/03/23 07:10:43;;;;;;;11.77;5.00;;;;;;;6.83;100.00;100485.56;6278631;28;20227;-69
2024/03/23 07:14:05;;;;;;;6.87;5.00;;;;;;;6.80;100.00;100476.94;6265605;28;20334;-68
2024/03/23 07:17:26;;;;;;;9.87;4.43;;;;;;;6.82;100.00;100483.84;6262189;28;20557;-68
2024/03/23 07:21:10;;;;;;;8.60;4.27;;;;;;;7.02;100.00;100483.13;6275168;28;20235;-68
2024/03/23 07:24:32;;;;;;;11.80;7.57;;;;;;;7.03;100.00;100487.50;6273182;28;20231;-68
2024/03/23 07:27:53;;;;;;;6.43;4.87;;;;;;;7.14;100.00;100476.78;6275743;28;20240;-69
2024/03/23 07:31:15;;;;;;;8.50;4.83;;;;;;;7.08;100.00;100500.53;6276175;28;20223;-67
2024/03/23 07:34:35;;;;;;;5.37;4.13;;;;;;;7.13;100.00;100480.41;6282281;28;20238;-67
2024/03/23 07:37:55;;;;;;;12.23;6.67;;;;;;;7.04;100.00;100485.69;6279259;28;20222;-67
2024/03/23 07:41:18;;;;;;;10.77;4.03;;;;;;;7.40;100.00;100471.97;6276527;28;20243;-68
2024/03/23 07:44:56;;;;;;;16.27;7.37;;;;;;;7.28;100.00;100477.50;6283521;28;20817;-68
2024/03/23 07:48:18;;;;;;;46.13;41.10;;;;;;;8.27;100.00;100476.25;6270809;28;20231;-72
2024/03/23 07:51:39;;;;;;;76.30;68.80;;;;;;;8.16;100.00;100477.13;6279878;28;20237;-69
2024/03/23 07:54:59;;;;;;;15.73;12.07;;;;;;;8.72;100.00;100464.19;6282558;28;20239;-70
2024/03/23 07:58:20;;;;;;;10.40;5.60;;;;;;;7.77;100.00;100470.63;6279012;28;20227;-69
2024/03/23 08:01:41;;;;;;;11.50;4.13;;;;;;;7.77;100.00;100469.78;6258409;28;20617;-69
2024/03/23 08:05:07;;;;;;;31.50;6.23;;;;;;;8.06;100.00;100452.06;6266924;28;20502;-68
2024/03/23 08:08:27;;;;;;;8.20;4.17;;;;;;;8.05;100.00;100470.00;6282607;28;20238;-69
2024/03/23 08:11:48;;;;;;;10.13;4.67;;;;;;;8.16;100.00;100465.53;6273357;28;20227;-69
2024/03/23 08:15:12;;;;;;;7.73;3.87;;;;;;;8.41;100.00;100457.97;6261222;28;20246;-69
2024/03/23 08:18:33;;;;;;;8.73;4.20;;;;;;;8.35;100.00;100463.88;6272823;28;20231;-69
2024/03/23 08:21:54;;;;;;;10.50;6.63;;;;;;;8.29;100.00;100450.13;6274347;28;21803;-70
2024/03/23 08:25:14;;;;;;;9.33;5.10;;;;;;;8.59;100.00;100453.72;6274390;28;20235;-68
2024/03/23 08:28:36;;;;;;;9.27;4.47;;;;;;;8.50;100.00;100449.13;6280468;28;20504;-68
2024/03/23 08:31:56;;;;;;;14.10;6.93;;;;;;;8.92;100.00;100443.63;6271465;28;20593;-69
2024/03/23 08:35:20;;;;;;;7.63;4.37;;;;;;;9.13;100.00;100456.03;6264724;28;20232;-68
2024/03/23 08:38:53;;;;;;;10.57;4.90;;;;;;;9.19;100.00;100443.84;6279284;28;20320;-71
2024/03/23 08:42:14;;;;;;;9.67;3.73;;;;;;;9.21;100.00;100447.25;6273789;28;20557;-69
2024/03/23 08:45:52;;;;;;;6.30;4.40;;;;;;;9.74;100.00;100432.47;6268925;28;20235;-70
2024/03/23 08:49:14;;;;;;;7.83;4.37;;;;;;;9.54;100.00;100428.06;6261959;28;20223;-69
2024/03/23 08:52:34;;;;;;;10.43;5.03;;;;;;;9.60;100.00;100417.59;6264391;28;20239;-68
2024/03/23 08:56:20;;;;;;;6.80;3.80;;;;;;;9.37;100.00;100420.66;6270652;28;20230;-70
2024/03/23 08:59:40;;;;;;;7.33;4.27;;;;;;;9.89;100.00;100414.06;6272993;28;20226;-70
2024/03/23 09:03:03;;;;;;;11.80;4.67;;;;;;;9.38;100.00;100422.38;6279003;28;20309;-69
2024/03/23 09:06:23;;;;;;;5.90;3.67;;;;;;;9.27;100.00;100423.34;6268407;28;20249;-68
2024/03/23 09:09:43;;;;;;;4.57;3.30;;;;;;;9.30;100.00;100420.41;6257905;28;20250;-68
2024/03/23 09:13:26;;;;;;;8.33;3.73;;;;;;;9.81;100.00;100414.75;6265847;28;20238;-69
2024/03/23 09:16:46;;;;;;;15.70;4.37;;;;;;;9.79;100.00;100407.78;6277779;28;20224;-69
2024/03/23 09:20:08;;;;;;;5.47;3.47;;;;;;;9.68;100.00;100403.41;6278193;28;20232;-68
2024/03/23 09:23:29;;;;;;;7.07;3.57;;;;;;;10.32;100.00;100401.81;6274398;28;20314;-69
2024/03/23 09:26:52;;;;;;;6.00;3.77;;;;;;;10.89;100.00;100395.31;6247486;28;20605;-69
2024/03/23 09:30:15;;;;;;;6.57;3.80;;;;;;;10.33;100.00;100391.84;6279132;28;20506;-67
2024/03/23 09:33:36;;;;;;;6.87;2.67;;;;;;;9.78;100.00;100404.28;6275320;28;20235;-67
2024/03/23 09:37:06;;;;;;;6.37;2.23;;;;;;;9.00;100.00;100404.34;6259869;28;20223;-67
2024/03/23 09:40:27;;;;;;;9.80;2.33;;;;;;;9.11;100.00;100406.06;6276480;28;20245;-66
2024/03/23 09:43:48;;;;;;;6.00;3.10;;;;;;;9.25;100.00;100408.34;6278864;28;20231;-69
2024/03/23 09:47:10;;;;;;;9.70;3.97;;;;;;;9.06;100.00;100394.84;6270914;28;20254;-69
2024/03/23 09:50:30;;;;;;;6.33;3.17;;;;;;;9.06;100.00;100395.72;6258452;28;20239;-68
2024/03/23 09:53:52;;;;;;;3.90;2.40;;;;;;;9.13;100.00;100399.56;6278080;28;20238;-67
2024/03/23 09:57:11;;;;;;;10.37;3.37;;;;;;;9.30;100.00;100398.03;6281336;28;20234;-69
2024/03/23 10:00:35;;;;;;;5.93;3.60;;;;;;;8.86;100.00;100400.19;6272663;28;20272;-66
2024/03/23 10:03:58;;;;;;;6.63;3.47;;;;;;;8.85;100.00;100390.44;6279238;28;20236;-67
2024/03/23 10:07:21;;;;;;;6.07;3.63;;;;;;;9.61;100.00;100386.16;6267424;28;20662;-68
2024/03/23 10:10:42;;;;;;;6.90;3.17;;;;;;;9.76;100.00;100375.81;6282439;28;20495;-65
2024/03/23 10:14:02;;;;;;;5.87;2.63;;;;;;;10.56;100.00;100374.31;6288771;28;20237;-67
2024/03/23 10:17:24;;;;;;;11.17;3.30;;;;;;;11.48;100.00;100366.94;6264619;28;20242;-69
2024/03/23 10:20:50;;;;;;;8.27;4.37;;;;;;;11.66;100.00;100362.41;6281550;28;20632;-70
2024/03/23 10:24:13;;;;;;;7.37;3.00;;;;;;;11.82;100.00;100357.16;6278366;28;20240;-71
2024/03/23 10:27:33;;;;;;;8.13;2.67;;;;;;;11.33;100.00;100350.44;6265555;28;20316;-70
2024/03/23 10:31:12;;;;;;;10.77;3.93;;;;;;;11.18;100.00;100343.91;6267774;28;20310;-69
2024/03/23 10:34:39;;;;;;;7.23;3.37;;;;;;;11.55;100.00;100339.19;6250068;28;20236;-70
2024/03/23 10:38:02;;;;;;;6.70;3.73;;;;;;;9.88;100.00;100356.66;6255797;28;24953;-68
2024/03/23 10:41:26;;;;;;;7.97;2.93;;;;;;;9.15;100.00;100357.25;6277222;28;20231;-68
2024/03/23 10:44:48;;;;;;;6.23;3.37;;;;;;;9.13;100.00;100383.44;6280284;28;20239;-69
2024/03/23 10:48:17;;;;;;;8.00;3.10;;;;;;;8.49;100.00;100388.31;6274651;28;20234;-69
2024/03/23 10:51:38;;;;;;;4.83;2.40;;;;;;;8.33;100.00;100374.53;6257954;28;20234;-66
2024/03/23 10:55:02;;;;;;;6.37;3.97;;;;;;;8.98;100.00;100368.69;6267038;28;20893;-67
2024/03/23 10:58:28;;;;;;;8.03;2.90;;;;;;;8.98;100.00;100360.63;6266849;28;20231;-67
2024/03/23 11:01:55;;;;;;;5.40;2.97;;;;;;;8.55;100.00;100354.72;6264642;28;20239;-68
2024/03/23 11:05:37;;;;;;;3.63;2.20;;;;;;;8.52;100.00;100365.72;6261974;28;20722;-68
2024/03/23 11:08:57;;;;;;;4.90;2.30;;;;;;;8.85;100.00;100365.38;6266931;28;20227;-67
2024/03/23 11:12:28;;;;;;;5.23;3.73;;;;;;;11.32;100.00;100342.50;6280644;28;20219;-67
2024/03/23 11:15:49;;;;;;;4.57;2.87;;;;;;;17.28;100.00;100323.88;6277228;28;20263;-68
2024/03/23 11:19:34;;;;;;;7.27;2.83;;;;;;;19.66;100.00;100316.00;6262942;28;20231;-68
2024/03/23 11:22:55;;;;;;;5.07;2.78;;;;;;;15.95;88.37;100324.13;6279308;28;20215;-67
2024/03/23 11:26:15;;;;;;;5.68;3.17;;;;;;;14.16;96.71;100318.13;6266915;28;20231;-67
2024/03/23 11:29:37;;;;;;;6.30;2.77;;;;;;;11.00;100.00;100322.28;6267971;28;20327;-68
2024/03/23 11:33:00;;;;;;;7.60;2.63;;;;;;;11.27;100.00;100318.69;6261457;28;20318;-67
2024/03/23 11:36:20;;;;;;;8.07;2.40;;;;;;;9.73;100.00;100328.47;6267059;28;20227;-67
2024/03/23 11:39:48;;;;;;;3.40;1.80;;;;;;;10.73;100.00;100325.03;6276792;28;20227;-68
2024/03/23 11:43:10;;;;;;;8.90;2.70;;;;;;;15.80;100.00;100301.47;6284484;28;20322;-68
2024/03/23 11:47:06;;;;;;;7.57;2.43;;;;;;;15.23;98.79;100305.63;6261474;28;20234;-69
2024/03/23 11:50:28;;;;;;;6.63;2.70;;;;;;;15.00;89.63;100304.75;6263636;28;20731;-68
2024/03/23 11:53:48;;;;;;;4.32;1.60;;;;;;;18.23;78.92;100299.81;6276660;28;20254;-67
2024/03/23 11:57:09;;;;;;;4.00;1.80;;;;;;;15.52;77.46;100316.66;6266241;28;20254;-67
2024/03/23 12:00:32;;;;;;;3.92;2.28;;;;;;;15.67;81.87;100293.09;6263171;28;20227;-67
2024/03/23 12:03:54;;;;;;;6.22;1.67;;;;;;;15.32;76.28;100304.56;6258801;28;20215;-68
2024/03/23 12:07:15;;;;;;;6.30;2.58;;;;;;;13.13;85.96;100334.19;6274076;28;20259;-68
2024/03/23 12:10:36;;;;;;;3.83;0.93;;;;;;;11.38;90.37;100360.78;6259131;28;20230;-68
2024/03/23 12:14:02;;;;;;;4.80;0.83;;;;;;;10.07;100.00;100372.78;6291115;28;20608;-68
2024/03/23 12:17:25;;;;;;;2.77;1.03;;;;;;;10.07;100.00;100353.94;6256294;28;20223;-68
2024/03/23 12:20:47;;;;;;;0.60;0.60;;;;;;;12.19;100.00;100333.44;6264373;28;20226;-68
2024/03/23 12:24:07;;;;;;;3.47;1.33;;;;;;;13.58;93.19;100329.16;6264823;28;20254;-68
2024/03/23 12:27:31;;;;;;;2.93;1.30;;;;;;;11.07;97.92;100331.47;6262830;28;20255;-69
2024/03/23 12:30:52;;;;;;;2.97;2.17;;;;;;;10.70;100.00;100324.47;6244843;28;20212;-68
2024/03/23 12:34:12;;;;;;;3.57;1.27;;;;;;;10.64;100.00;100322.38;6264800;28;20230;-68
2024/03/23 12:37:34;;;;;;;2.07;1.33;;;;;;;10.68;100.00;100330.00;6261896;28;20601;-67
2024/03/23 12:40:56;;;;;;;1.70;1.40;;;;;;;10.22;100.00;100343.56;6253560;28;20223;-69
2024/03/23 12:44:16;;;;;;;4.67;1.77;;;;;;;9.53;100.00;100388.69;6282849;28;20238;-68
2024/03/23 12:47:37;;;;;;;1.37;1.23;;;;;;;8.73;100.00;100396.91;6260742;28;20223;-67
2024/03/23 12:50:57;;;;;;;0.77;0.77;;;;;;;8.40;100.00;100386.47;6270521;28;20250;-68
2024/03/23 12:54:19;;;;;;;0.70;0.70;;;;;;;8.48;100.00;100385.78;6278033;28;20223;-67
2024/03/23 12:58:02;;;;;;;1.30;1.20;;;;;;;8.56;100.00;100378.75;6269590;28;20227;-70
2024/03/23 13:01:23;;;;;;;1.30;0.80;;;;;;;8.23;100.00;100378.97;6260478;28;20493;-68
2024/03/23 13:04:43;;;;;;;1.80;1.17;;;;;;;8.08;100.00;100374.94;6251840;28;20231;-67
2024/03/23 13:08:05;;;;;;;1.40;1.23;;;;;;;7.84;100.00;100390.47;6258605;28;20228;-68
2024/03/23 13:11:26;;;;;;;0.83;0.80;;;;;;;7.36;100.00;100379.38;6281413;28;20243;-67
2024/03/23 13:14:47;;;;;;;1.63;0.87;;;;;;;7.54;100.00;100377.81;6275314;28;20239;-67
2024/03/23 13:18:08;;;;;;;2.50;1.40;;;;;;;7.48;100.00;100381.03;6276195;28;20311;-68
2024/03/23 13:21:29;;;;;;;4.27;1.30;;;;;;;7.54;100.00;100377.81;6268689;28;20303;-68
2024/03/23 13:24:51;;;;;;;3.20;2.00;;;;;;;8.33;100.00;100371.84;6280896;28;20227;-69
2024/03/23 13:28:13;;;;;;;2.97;1.73;;;;;;;8.13;100.00;100375.41;6280392;28;20235;-69
2024/03/23 13:31:34;;;;;;;2.77;1.43;;;;;;;7.80;100.00;100378.31;6268740;28;20538;-69
2024/03/23 13:34:55;;;;;;;3.27;1.60;;;;;;;7.62;100.00;100382.53;6263857;28;20231;-68
2024/03/23 13:38:16;;;;;;;2.93;1.70;;;;;;;7.60;100.00;100379.97;6278519;28;20223;-68
2024/03/23 13:41:37;;;;;;;2.77;1.57;;;;;;;9.27;100.00;100364.19;6258091;28;20610;-68
2024/03/23 13:44:59;;;;;;;2.30;2.10;;;;;;;9.98;100.00;100364.69;6277586;28;20242;-68
2024/03/23 13:48:21;;;;;;;4.53;2.40;;;;;;;10.63;100.00;100363.81;6253145;28;20239;-69
2024/03/23 13:51:55;;;;;;;1.63;1.10;;;;;;;10.14;100.00;100370.34;6270080;28;20589;-70
2024/03/23 13:55:18;;;;;;;1.70;1.43;;;;;;;9.33;100.00;100369.00;6261109;28;20293;-69
2024/03/23 13:58:46;;;;;;;5.67;1.20;;;;;;;8.88;100.00;100372.31;6277962;28;20227;-69
2024/03/23 14:02:08;;;;;;;2.87;1.27;;;;;;;9.03;100.00;100377.19;6265457;28;20230;-68
2024/03/23 14:05:29;;;;;;;3.27;1.20;;;;;;;8.89;100.00;100374.88;6265825;28;20234;-69
2024/03/23 14:08:50;;;;;;;10.47;1.97;;;;;;;10.01;100.00;100369.81;6292295;28;20278;-69
2024/03/23 14:12:12;;;;;;;1.60;1.00;;;;;;;9.71;100.00;100364.59;6268515;28;20238;-70
2024/03/23 14:15:36;;;;;;;1.20;1.10;;;;;;;10.87;100.00;100356.84;6274247;28;20234;-70
2024/03/23 14:18:58;;;;;;;0.97;0.97;;;;;;;10.61;100.00;100374.75;6277674;28;20302;-69
2024/03/23 14:22:22;;;;;;;1.90;1.00;;;;;;;11.83;100.00;100375.91;6272502;28;20227;-68
2024/03/23 14:25:43;;;;;;;1.40;1.23;;;;;;;12.19;100.00;100379.38;6275658;28;20227;-68
2024/03/23 14:29:04;;;;;;;1.73;1.10;;;;;;;10.96;100.00;100403.66;6265203;28;20258;-68
2024/03/23 14:32:25;;;;;;;3.53;2.03;;;;;;;12.64;100.00;100373.75;6275792;28;20235;-69
2024/03/23 14:35:54;;;;;;;2.67;1.60;;;;;;;14.23;99.82;100357.94;6275756;28;20231;-69
2024/03/23 14:39:23;;;;;;;4.37;1.63;;;;;;;12.20;100.00;100359.47;6269479;28;20297;-70
2024/03/23 14:42:44;;;;;;;2.53;1.40;;;;;;;11.15;100.00;100371.16;6290625;28;20453;-69
2024/03/23 14:46:08;;;;;;;2.63;1.13;;;;;;;11.14;100.00;100373.00;6274316;28;20234;-69
2024/03/23 14:49:29;;;;;;;3.43;1.07;;;;;;;12.09;100.00;100350.78;6289680;28;20310;-68
2024/03/23 14:52:52;;;;;;;3.23;1.57;;;;;;;9.65;100.00;100364.19;6273665;28;20231;-69
2024/03/23 14:56:15;;;;;;;5.13;1.97;;;;;;;9.31;100.00;100367.44;6273521;28;20281;-68
2024/03/23 14:59:35;;;;;;;3.43;1.30;;;;;;;9.18;100.00;100373.09;6273782;28;20226;-68
2024/03/23 15:02:57;;;;;;;1.57;1.40;;;;;;;8.63;100.00;100385.28;6274718;28;20630;-70
2024/03/23 15:06:18;;;;;;;4.27;1.93;;;;;;;7.71;100.00;100387.97;6278254;28;20338;-70
2024/03/23 15:09:39;;;;;;;3.07;1.70;;;;;;;7.89;100.00;100390.91;6267717;28;20231;-69
2024/03/23 15:13:00;;;;;;;2.80;1.40;;;;;;;8.00;100.00;100390.84;6278304;28;20224;-70
2024/03/23 15:16:20;;;;;;;1.70;1.60;;;;;;;8.04;100.00;100389.59;6272077;28;20227;-68
2024/03/23 15:19:41;;;;;;;2.50;1.50;;;;;;;7.46;100.00;100380.31;6282335;28;20515;-70
2024/03/23 15:23:03;;;;;;;1.60;1.10;;;;;;;7.66;100.00;100371.41;6267708;28;20281;-69
2024/03/23 15:26:25;;;;;;;2.33;1.77;;;;;;;8.61;100.00;100371.13;6278701;28;20272;-69
2024/03/23 15:29:45;;;;;;;1.90;1.57;;;;;;;8.87;100.00;100374.16;6282729;28;20223;-70
2024/03/23 15:33:22;;;;;;;2.03;1.07;;;;;;;8.59;100.00;100365.03;6271618;28;20341;-71
2024/03/23 15:36:42;;;;;;;2.40;1.53;;;;;;;9.31;100.00;100359.38;6274905;28;20326;-69